createdAt,value
2018-04-18T00:01:36.819Z,67.58
2018-04-18T00:04:04.447Z,67.72
2018-04-18T00:06:32.061Z,68.29
2018-04-18T00:08:59.875Z,68.08
2018-04-18T00:11:27.464Z,68.49
2018-04-18T00:13:55.109Z,68.75
2018-04-18T00:16:22.752Z,69.24
2018-04-18T00:18:50.357Z,69.26
2018-04-18T00:21:17.923Z,69.11
2018-04-18T00:23:45.563Z,69.24
2018-04-18T00:26:13.144Z,69.70
2018-04-18T00:28:40.796Z,69.94
2018-04-18T00:31:09.588Z,70.13
2018-04-18T00:33:37.943Z,70.08
2018-04-18T00:36:05.632Z,70.04
2018-04-18T00:38:33.349Z,70.34
2018-04-18T00:41:00.936Z,70.61
2018-04-18T00:43:28.512Z,70.75
2018-04-18T00:45:56.272Z,70.60
2018-04-18T00:48:24.745Z,70.52
2018-04-18T00:50:52.345Z,70.42
2018-04-18T00:53:20.037Z,70.56
2018-04-18T00:55:47.610Z,69.97
2018-04-18T00:58:15.180Z,69.90
2018-04-18T01:00:43.140Z,68.73
2018-04-18T01:03:10.720Z,68.17
2018-04-18T01:05:38.314Z,64.85
2018-04-18T01:08:06.032Z,64.31
2018-04-18T01:10:33.612Z,64.82
2018-04-18T01:13:01.259Z,65.10
2018-04-18T01:15:28.983Z,64.92
2018-04-18T01:17:56.584Z,64.99
2018-04-18T01:20:24.249Z,65.29
2018-04-18T01:22:51.964Z,65.90
2018-04-18T01:25:19.606Z,65.80
2018-04-18T01:27:47.245Z,66.02
2018-04-18T01:30:14.915Z,66.09
2018-04-18T01:32:42.483Z,66.30
2018-04-18T01:35:10.059Z,66.35
2018-04-18T01:37:37.741Z,66.49
2018-04-18T01:40:05.384Z,66.58
2018-04-18T01:42:32.988Z,66.78
2018-04-18T01:45:00.732Z,67.26
2018-04-18T01:47:28.336Z,67.28
2018-04-18T01:49:55.935Z,67.19
2018-04-18T01:52:23.651Z,67.18
2018-04-18T01:54:51.292Z,67.56
2018-04-18T01:57:18.867Z,67.55
2018-04-18T01:59:46.583Z,66.63
2018-04-18T02:02:14.388Z,66.62
2018-04-18T02:04:41.982Z,66.13
2018-04-18T02:07:09.704Z,66.27
2018-04-18T02:09:37.336Z,66.47
2018-04-18T02:12:04.931Z,66.01
2018-04-18T02:14:32.618Z,65.83
2018-04-18T02:17:00.187Z,66.04
2018-04-18T02:19:27.791Z,66.04
2018-04-18T02:21:55.411Z,65.30
2018-04-18T02:24:22.984Z,65.31
2018-04-18T02:26:50.560Z,65.37
2018-04-18T02:29:18.299Z,65.47
2018-04-18T02:31:45.907Z,65.84
2018-04-18T02:34:13.504Z,65.81
2018-04-18T02:36:41.230Z,66.45
2018-04-18T02:39:08.823Z,66.32
2018-04-18T02:41:36.425Z,66.56
2018-04-18T02:44:04.111Z,67.18
2018-04-18T02:46:32.501Z,67.35
2018-04-18T02:49:00.109Z,67.72
2018-04-18T02:51:27.853Z,68.13
2018-04-18T02:53:55.472Z,68.61
2018-04-18T02:56:23.121Z,68.86
2018-04-18T02:58:50.755Z,69.19
2018-04-18T03:01:18.351Z,69.51
2018-04-18T03:03:46.167Z,69.90
2018-04-18T03:06:13.807Z,70.08
2018-04-18T03:08:41.530Z,70.39
2018-04-18T03:11:09.121Z,70.70
2018-04-18T03:13:36.768Z,70.80
2018-04-18T03:16:04.383Z,70.54
2018-04-18T03:18:31.954Z,70.61
2018-04-18T03:20:59.657Z,70.76
2018-04-18T03:23:27.244Z,70.85
2018-04-18T03:25:54.852Z,71.28
2018-04-18T03:28:22.568Z,71.62
2018-04-18T03:30:50.162Z,71.90
2018-04-18T03:33:17.743Z,72.19
2018-04-18T03:35:45.473Z,72.01
2018-04-18T03:38:13.048Z,72.05
2018-04-18T03:40:40.690Z,71.75
2018-04-18T03:43:08.427Z,72.35
2018-04-18T03:45:36.044Z,72.31
2018-04-18T03:48:03.757Z,72.35
2018-04-18T03:50:31.472Z,71.75
2018-04-18T03:52:59.105Z,71.80
2018-04-18T03:55:26.697Z,72.03
2018-04-18T03:57:54.349Z,72.00
2018-04-18T04:00:21.937Z,72.12
2018-04-18T04:02:49.597Z,72.28
2018-04-18T04:05:17.386Z,72.04
2018-04-18T04:07:45.039Z,71.76
2018-04-18T04:10:12.756Z,71.63
2018-04-18T04:12:41.331Z,71.51
2018-04-18T04:15:08.916Z,71.53
2018-04-18T04:17:57.380Z,71.22
2018-04-18T04:20:36.693Z,71.67
2018-04-18T04:23:16.091Z,71.48
2018-04-18T04:25:43.729Z,71.14
2018-04-18T04:28:11.313Z,70.87
2018-04-18T04:30:39.096Z,70.83
2018-04-18T04:33:06.771Z,70.62
2018-04-18T04:35:34.439Z,70.55
2018-04-18T04:38:02.068Z,70.61
2018-04-18T04:40:29.717Z,69.49
2018-04-18T04:42:57.362Z,69.45
2018-04-18T04:45:25.085Z,69.13
2018-04-18T04:47:52.660Z,69.23
2018-04-18T04:50:20.249Z,69.18
2018-04-18T04:52:47.892Z,67.37
2018-04-18T04:55:15.486Z,67.37
2018-04-18T04:57:43.157Z,67.16
2018-04-18T05:00:10.855Z,66.99
2018-04-18T05:02:38.437Z,67.17
2018-04-18T05:05:06.097Z,67.36
2018-04-18T05:07:33.923Z,66.34
2018-04-18T05:10:01.569Z,63.26
2018-04-18T05:12:29.155Z,60.11
2018-04-18T05:14:56.846Z,57.75
2018-04-18T05:17:24.493Z,55.37
2018-04-18T05:19:52.137Z,53.96
2018-04-18T05:22:19.764Z,52.92
2018-04-18T05:24:47.376Z,52.13
2018-04-18T05:27:15.939Z,50.80
2018-04-18T05:29:43.812Z,48.67
2018-04-18T05:32:11.426Z,49.22
2018-04-18T05:37:20.054Z,48.07
2018-04-18T05:42:34.144Z,46.56
2018-04-18T05:45:01.851Z,45.08
2018-04-18T05:47:29.438Z,44.20
2018-04-18T05:49:57.023Z,44.02
2018-04-18T05:52:24.795Z,43.64
2018-04-18T05:54:52.517Z,42.63
2018-04-18T05:57:20.182Z,41.24
2018-04-18T05:59:47.836Z,41.35
2018-04-18T06:02:15.496Z,40.13
2018-04-18T06:04:43.202Z,40.76
2018-04-18T06:07:10.929Z,40.22
2018-04-18T06:09:38.836Z,40.07
2018-04-18T06:12:06.495Z,37.74
2018-04-18T06:14:34.129Z,38.92
2018-04-18T06:17:01.723Z,38.15
2018-04-18T06:19:29.316Z,39.67
2018-04-18T06:21:57.034Z,39.48
2018-04-18T06:24:24.771Z,39.60
2018-04-18T06:26:52.364Z,41.29
2018-04-18T06:29:20.078Z,42.35
2018-04-18T06:31:47.704Z,43.47
2018-04-18T06:34:15.296Z,44.42
2018-04-18T06:36:42.915Z,45.67
2018-04-18T06:39:10.516Z,47.28
2018-04-18T06:41:38.152Z,46.75
2018-04-18T06:44:05.946Z,46.92
2018-04-18T06:46:33.536Z,47.47
2018-04-18T06:49:01.115Z,47.75
2018-04-18T06:51:28.823Z,47.09
2018-04-18T06:53:56.474Z,48.15
2018-04-18T06:56:24.868Z,47.29
2018-04-18T06:58:52.565Z,45.56
2018-04-18T07:01:20.171Z,46.60
2018-04-18T07:03:47.817Z,47.87
2018-04-18T07:06:15.556Z,50.56
2018-04-18T07:08:43.180Z,50.84
2018-04-18T07:11:10.906Z,51.58
2018-04-18T07:13:39.184Z,51.39
2018-04-18T07:16:06.837Z,50.32
2018-04-18T07:18:34.568Z,52.66
2018-04-18T07:21:02.234Z,51.66
2018-04-18T07:23:29.816Z,48.06
2018-04-18T07:25:57.404Z,46.97
2018-04-18T07:28:25.097Z,46.89
2018-04-18T07:30:52.676Z,47.63
2018-04-18T07:33:20.319Z,49.16
2018-04-18T07:35:48.046Z,51.02
2018-04-18T07:38:15.660Z,48.00
2018-04-18T07:40:43.300Z,48.22
2018-04-18T07:43:11.091Z,48.45
2018-04-18T07:45:38.686Z,46.79
2018-04-18T07:48:06.349Z,47.07
2018-04-18T07:50:34.055Z,46.11
2018-04-18T07:53:01.699Z,47.14
2018-04-18T07:55:29.363Z,45.57
2018-04-18T07:57:57.029Z,43.10
2018-04-18T08:00:24.616Z,44.77
2018-04-18T08:02:52.217Z,44.59
2018-04-18T08:05:20.006Z,46.00
2018-04-18T08:07:47.668Z,45.63
2018-04-18T08:10:15.255Z,46.02
2018-04-18T08:12:43.112Z,44.55
2018-04-18T08:15:10.697Z,41.91
2018-04-18T08:17:38.325Z,42.87
2018-04-18T08:20:06.021Z,43.57
2018-04-18T08:22:33.620Z,42.66
2018-04-18T08:25:01.211Z,40.39
2018-04-18T08:27:28.841Z,41.42
2018-04-18T08:29:56.965Z,42.67
2018-04-18T08:32:24.625Z,42.28
2018-04-18T08:34:52.280Z,41.77
2018-04-18T08:37:20.638Z,40.07
2018-04-18T08:39:48.900Z,41.01
2018-04-18T08:42:16.614Z,39.13
2018-04-18T08:44:44.195Z,39.18
2018-04-18T08:47:11.802Z,39.33
2018-04-18T08:49:39.467Z,39.21
2018-04-18T08:52:07.130Z,37.82
2018-04-18T08:54:34.714Z,39.07
2018-04-18T08:57:02.479Z,38.27
2018-04-18T08:59:30.121Z,40.43
2018-04-18T09:01:57.708Z,38.19
2018-04-18T09:04:25.580Z,39.87
2018-04-18T09:06:53.259Z,39.80
2018-04-18T09:09:20.861Z,39.10
2018-04-18T09:11:48.607Z,37.45
2018-04-18T09:14:16.337Z,39.08
2018-04-18T09:16:43.950Z,35.58
2018-04-18T09:19:11.590Z,37.00
2018-04-18T09:21:39.192Z,36.98
2018-04-18T09:24:06.776Z,34.62
2018-04-18T09:26:34.421Z,37.30
2018-04-18T09:29:02.086Z,35.50
2018-04-18T09:31:29.669Z,36.00
2018-04-18T09:33:57.332Z,36.35
2018-04-18T09:36:24.948Z,35.39
2018-04-18T09:38:52.535Z,37.65
2018-04-18T09:41:20.253Z,36.80
2018-04-18T09:43:47.896Z,36.48
2018-04-18T09:46:15.529Z,34.54
2018-04-18T09:48:43.269Z,36.81
2018-04-18T09:51:10.860Z,34.52
2018-04-18T09:53:38.447Z,34.63
2018-04-18T09:56:06.069Z,35.33
2018-04-18T09:58:33.700Z,33.37
2018-04-18T10:01:01.326Z,33.04
2018-04-18T10:03:28.980Z,35.33
2018-04-18T10:05:56.571Z,35.62
2018-04-18T10:08:24.156Z,35.56
2018-04-18T10:10:51.803Z,32.07
2018-04-18T10:13:19.449Z,32.90
2018-04-18T10:15:47.154Z,35.67
2018-04-18T10:18:14.890Z,30.51
2018-04-18T10:20:42.468Z,30.56
2018-04-18T10:23:11.028Z,29.21
2018-04-18T10:25:38.773Z,30.50
2018-04-18T10:28:06.449Z,29.78
2018-04-18T10:30:34.110Z,29.14
2018-04-18T10:33:01.878Z,29.72
2018-04-18T10:35:29.463Z,28.63
2018-04-18T10:37:57.119Z,27.85
2018-04-18T10:40:24.832Z,27.08
2018-04-18T10:42:52.468Z,28.15
2018-04-18T10:45:20.041Z,26.70
2018-04-18T10:47:47.679Z,26.84
2018-04-18T10:50:15.280Z,27.25
2018-04-18T10:52:42.902Z,27.18
2018-04-18T10:55:10.684Z,27.10
2018-04-18T10:57:38.266Z,30.22
2018-04-18T11:00:05.866Z,26.95
2018-04-18T11:02:33.569Z,26.55
2018-04-18T11:05:01.155Z,25.77
2018-04-18T11:07:28.775Z,25.92
2018-04-18T11:09:56.485Z,26.91
2018-04-18T11:12:24.128Z,26.01
2018-04-18T11:14:51.760Z,26.72
2018-04-18T11:17:19.478Z,27.83
2018-04-18T11:19:47.843Z,26.47
2018-04-18T11:22:16.096Z,25.79
2018-04-18T11:24:43.855Z,25.59
2018-04-18T11:27:11.464Z,26.26
2018-04-18T11:29:39.059Z,26.36
2018-04-18T11:32:06.749Z,26.45
2018-04-18T11:34:34.385Z,26.60
2018-04-18T11:37:02.024Z,27.59
2018-04-18T11:39:29.839Z,27.13
2018-04-18T11:41:57.437Z,27.14
2018-04-18T11:44:25.018Z,27.34
2018-04-18T11:46:52.729Z,27.57
2018-04-18T11:49:20.404Z,26.67
2018-04-18T11:51:47.988Z,26.14
2018-04-18T11:54:15.637Z,26.36
2018-04-18T11:56:43.245Z,25.64
2018-04-18T11:59:10.855Z,25.64
2018-04-18T12:01:39.281Z,25.94
2018-04-18T12:04:06.977Z,26.84
2018-04-18T12:06:34.648Z,26.92
2018-04-18T12:09:02.335Z,26.49
2018-04-18T12:11:29.974Z,26.79
2018-04-18T12:13:57.576Z,27.61
2018-04-18T12:16:25.278Z,26.20
2018-04-18T12:18:53.207Z,27.69
2018-04-18T12:21:20.797Z,26.49
2018-04-18T12:23:48.505Z,26.52
2018-04-18T12:26:16.075Z,25.66
2018-04-18T12:28:43.659Z,25.52
2018-04-18T12:31:12.174Z,25.94
2018-04-18T12:33:39.759Z,27.22
2018-04-18T12:36:07.368Z,26.57
2018-04-18T12:44:23.680Z,28.13
2018-04-18T12:46:51.308Z,27.80
2018-04-18T12:49:18.890Z,28.27
2018-04-18T12:51:46.489Z,28.85
2018-04-18T12:54:14.903Z,28.02
2018-04-18T12:56:42.516Z,29.10
2018-04-18T12:59:10.172Z,28.41
2018-04-18T13:01:37.895Z,28.79
2018-04-18T13:04:05.489Z,28.13
2018-04-18T13:06:33.992Z,28.59
2018-04-18T13:09:01.621Z,27.70
2018-04-18T13:11:29.407Z,29.07
2018-04-18T13:13:57.000Z,29.44
2018-04-18T13:16:24.654Z,29.41
2018-04-18T13:18:52.404Z,29.89
2018-04-18T13:21:20.004Z,29.81
2018-04-18T13:23:47.733Z,30.42
2018-04-18T13:26:15.323Z,30.35
2018-04-18T13:28:42.900Z,30.03
2018-04-18T13:31:10.537Z,30.96
2018-04-18T13:33:38.116Z,30.93
2018-04-18T13:36:06.149Z,30.16
2018-04-18T13:38:33.806Z,29.88
2018-04-18T13:41:01.439Z,30.39
2018-04-18T13:43:29.039Z,31.49
2018-04-18T13:45:56.726Z,30.65
2018-04-18T13:48:24.412Z,31.45
2018-04-18T13:50:51.995Z,31.75
2018-04-18T13:53:19.620Z,31.03
2018-04-18T13:55:47.205Z,30.92
2018-04-18T13:58:14.845Z,31.84
2018-04-18T14:00:42.471Z,32.16
2018-04-18T14:03:10.056Z,31.72
2018-04-18T14:05:37.652Z,32.52
2018-04-18T14:08:05.610Z,32.09
2018-04-18T14:10:33.258Z,32.27
2018-04-18T14:13:01.448Z,31.58
2018-04-18T14:15:29.112Z,32.41
2018-04-18T14:17:56.770Z,32.67
2018-04-18T14:20:24.493Z,32.67
2018-04-18T14:22:52.138Z,32.51
2018-04-18T14:25:19.721Z,33.38
2018-04-18T14:27:47.373Z,33.16
2018-04-18T14:30:15.018Z,32.75
2018-04-18T14:32:42.602Z,33.20
2018-04-18T14:35:10.184Z,33.72
2018-04-18T14:37:37.937Z,33.34
2018-04-18T14:40:05.636Z,33.13
2018-04-18T14:42:33.295Z,33.24
2018-04-18T14:45:01.054Z,33.97
2018-04-18T14:47:28.633Z,33.65
2018-04-18T14:49:56.278Z,33.49
2018-04-18T14:52:23.927Z,33.59
2018-04-18T14:54:51.614Z,33.66
2018-04-18T14:57:19.267Z,34.45
2018-04-18T14:59:46.913Z,34.24
2018-04-18T15:02:22.186Z,34.87
2018-04-18T15:04:56.785Z,34.39
2018-04-18T15:07:27.970Z,34.53
2018-04-18T15:09:55.834Z,35.48
2018-04-18T15:12:23.430Z,35.75
2018-04-18T15:14:51.027Z,35.00
2018-04-18T15:17:18.763Z,36.23
2018-04-18T15:19:46.348Z,35.63
2018-04-18T15:22:14.099Z,34.79
2018-04-18T15:24:42.176Z,35.39
2018-04-18T15:27:09.809Z,35.17
2018-04-18T15:29:37.570Z,35.78
2018-04-18T15:32:05.241Z,35.38
2018-04-18T15:34:32.833Z,35.53
2018-04-18T15:37:00.481Z,36.19
2018-04-18T15:39:28.156Z,36.18
2018-04-18T15:41:55.777Z,36.94
2018-04-18T15:44:23.347Z,36.20
2018-04-18T15:46:51.065Z,36.25
2018-04-18T15:49:18.640Z,36.87
2018-04-18T15:51:46.285Z,36.37
2018-04-18T15:54:14.153Z,36.93
2018-04-18T15:56:41.772Z,37.27
2018-04-18T15:59:09.457Z,37.10
2018-04-18T16:01:37.100Z,37.50
2018-04-18T16:04:04.749Z,37.70
2018-04-18T16:06:32.325Z,38.35
2018-04-18T16:09:00.045Z,38.85
2018-04-18T16:11:27.709Z,39.75
2018-04-18T16:13:56.112Z,38.76
2018-04-18T16:16:23.740Z,39.42
2018-04-18T16:18:51.321Z,39.49
2018-04-18T16:21:18.968Z,39.31
2018-04-18T16:23:46.811Z,38.82
2018-04-18T16:26:14.396Z,39.38
2018-04-18T16:28:41.995Z,39.95
2018-04-18T16:31:09.787Z,39.98
2018-04-18T16:33:37.369Z,39.75
2018-04-18T16:36:04.996Z,40.05
2018-04-18T16:38:32.625Z,39.27
2018-04-18T16:41:00.256Z,39.37
2018-04-18T16:43:27.912Z,39.18
2018-04-18T16:45:55.614Z,39.80
2018-04-18T16:48:23.255Z,40.46
2018-04-18T16:50:50.893Z,40.82
2018-04-18T16:53:18.580Z,40.25
2018-04-18T16:55:46.233Z,41.36
2018-04-18T16:58:13.890Z,41.99
2018-04-18T17:00:41.686Z,41.91
2018-04-18T17:03:09.271Z,42.59
2018-04-18T17:05:36.873Z,43.24
2018-04-18T17:08:04.916Z,43.76
2018-04-18T17:10:32.547Z,44.53
2018-04-18T17:13:00.125Z,44.58
2018-04-18T17:15:27.818Z,44.88
2018-04-18T17:17:55.477Z,45.87
2018-04-18T17:20:23.064Z,47.10
2018-04-18T17:22:50.700Z,46.08
2018-04-18T17:25:18.366Z,46.57
2018-04-18T17:27:46.052Z,47.57
2018-04-18T17:30:13.784Z,46.79
2018-04-18T17:32:41.365Z,47.14
2018-04-18T17:35:08.966Z,47.83
2018-04-18T17:37:36.700Z,48.00
2018-04-18T17:40:04.352Z,48.06
2018-04-18T17:42:32.037Z,48.09
2018-04-18T17:44:59.778Z,47.92
2018-04-18T17:47:27.393Z,48.16
2018-04-18T17:49:55.087Z,48.14
2018-04-18T17:52:22.858Z,48.92
2018-04-18T17:54:50.566Z,48.65
2018-04-18T17:57:18.173Z,48.88
2018-04-18T17:59:46.024Z,48.87
2018-04-18T18:02:13.638Z,48.56
2018-04-18T18:04:41.285Z,49.15
2018-04-18T18:07:09.112Z,49.08
2018-04-18T18:09:36.693Z,49.53
2018-04-18T18:12:04.518Z,49.86
2018-04-18T18:14:32.179Z,49.89
2018-04-18T18:16:59.776Z,50.15
2018-04-18T18:19:27.360Z,49.98
2018-04-18T18:21:55.103Z,50.86
2018-04-18T18:24:22.713Z,50.95
2018-04-18T18:26:50.690Z,50.72
2018-04-18T18:29:18.413Z,51.09
2018-04-18T18:31:46.012Z,50.73
2018-04-18T18:34:13.669Z,50.70
2018-04-18T18:36:41.301Z,51.12
2018-04-18T18:39:08.947Z,51.07
2018-04-18T18:41:36.545Z,51.55
2018-04-18T18:44:04.221Z,51.23
2018-04-18T18:46:31.877Z,51.09
2018-04-18T18:48:59.545Z,51.62
2018-04-18T18:51:27.513Z,52.32
2018-04-18T18:53:55.152Z,52.13
2018-04-18T18:56:22.812Z,52.26
2018-04-18T18:58:50.553Z,52.70
2018-04-18T19:01:18.234Z,52.92
2018-04-18T19:03:45.855Z,53.27
2018-04-18T19:06:13.596Z,53.15
2018-04-18T19:08:41.201Z,52.67
2018-04-18T19:11:08.827Z,52.57
2018-04-18T19:13:36.614Z,52.44
2018-04-18T19:16:04.228Z,52.48
2018-04-18T19:18:31.937Z,51.43
2018-04-18T19:20:59.647Z,50.92
2018-04-18T19:23:27.224Z,50.40
2018-04-18T19:25:55.743Z,51.27
2018-04-18T19:28:23.830Z,50.60
2018-04-18T19:30:51.422Z,50.11
2018-04-18T19:33:19.004Z,49.93
2018-04-18T19:35:46.792Z,50.14
2018-04-18T19:38:14.453Z,50.29
2018-04-18T19:40:42.042Z,50.47
2018-04-18T19:43:09.675Z,50.06
2018-04-18T19:45:37.532Z,49.87
2018-04-18T19:48:05.206Z,50.21
2018-04-18T19:50:32.908Z,50.45
2018-04-18T19:53:00.558Z,50.38
2018-04-18T19:55:28.169Z,50.16
2018-04-18T19:57:55.791Z,50.26
2018-04-18T20:00:23.479Z,49.68
2018-04-18T20:02:51.067Z,49.61
2018-04-18T20:05:18.809Z,50.13
2018-04-18T20:07:46.468Z,49.10
2018-04-18T20:10:14.081Z,49.33
2018-04-18T20:12:41.824Z,49.22
2018-04-18T20:15:10.449Z,50.04
2018-04-18T20:17:38.032Z,50.06
2018-04-18T20:20:06.589Z,48.61
2018-04-18T20:22:34.240Z,49.91
2018-04-18T20:25:01.788Z,49.82
2018-04-18T20:27:32.111Z,49.81
2018-04-18T20:29:59.764Z,49.82
2018-04-18T20:32:27.412Z,50.11
2018-04-18T20:34:55.092Z,50.28
2018-04-18T20:37:22.684Z,51.91
2018-04-18T20:39:50.263Z,52.93
2018-04-18T20:42:17.956Z,53.04
2018-04-18T20:44:45.543Z,53.08
2018-04-18T20:47:13.148Z,53.48
2018-04-18T20:49:40.920Z,53.69
2018-04-18T20:52:08.565Z,53.76
2018-04-18T20:54:36.173Z,54.24
2018-04-18T20:57:03.925Z,54.59
2018-04-18T20:59:31.523Z,55.25
2018-04-18T21:01:59.143Z,55.24
2018-04-18T21:04:26.806Z,54.56
2018-04-18T21:06:54.448Z,55.02
2018-04-18T21:09:22.032Z,55.85
2018-04-18T21:11:49.800Z,56.06
2018-04-18T21:14:17.368Z,56.12
2018-04-18T21:16:44.945Z,56.49
2018-04-18T21:19:12.671Z,56.86
2018-04-18T21:21:40.351Z,57.05
2018-04-18T21:24:07.973Z,57.79
2018-04-18T21:26:35.708Z,58.07
2018-04-18T21:29:03.358Z,58.25
2018-04-18T21:31:32.691Z,58.36
2018-04-18T21:34:01.277Z,58.67
2018-04-18T21:36:28.948Z,58.13
2018-04-18T21:38:56.538Z,58.68
2018-04-18T21:41:24.196Z,58.93
2018-04-18T21:43:51.780Z,59.50
2018-04-18T21:46:19.359Z,60.43
2018-04-18T21:48:47.098Z,59.73
2018-04-18T21:51:14.679Z,60.33
2018-04-18T21:53:42.276Z,60.91
2018-04-18T21:56:10.003Z,61.25
2018-04-18T21:58:37.833Z,61.63
2018-04-18T22:01:05.528Z,62.38
2018-04-18T22:03:33.277Z,62.79
2018-04-18T22:06:01.090Z,63.02
2018-04-18T22:08:28.689Z,63.60
2018-04-18T22:10:56.659Z,63.36
2018-04-18T22:13:24.337Z,63.84
2018-04-18T22:15:51.993Z,64.16
2018-04-18T22:18:19.768Z,64.14
2018-04-18T22:20:47.360Z,63.88
2018-04-18T22:23:15.074Z,64.18
2018-04-18T22:25:42.717Z,63.92
2018-04-18T22:28:10.378Z,62.95
2018-04-18T22:30:37.986Z,63.66
2018-04-18T22:33:05.864Z,63.05
2018-04-18T22:35:33.443Z,63.88
2018-04-18T22:38:01.098Z,63.35
2018-04-18T22:40:28.889Z,62.24
2018-04-18T22:42:56.529Z,62.14
2018-04-18T22:45:24.347Z,62.15
2018-04-18T22:47:51.988Z,61.51
2018-04-18T22:50:19.628Z,60.64
2018-04-18T22:52:47.204Z,62.15
2018-04-18T22:55:14.897Z,62.26
2018-04-18T22:57:42.483Z,62.26
2018-04-18T23:00:10.165Z,61.29
2018-04-18T23:02:37.856Z,60.94
2018-04-18T23:05:05.441Z,59.49
2018-04-18T23:07:33.019Z,58.41
2018-04-18T23:10:00.727Z,57.80
2018-04-18T23:12:28.307Z,56.75
2018-04-18T23:14:55.889Z,57.08
2018-04-18T23:17:23.680Z,57.45
2018-04-18T23:19:51.261Z,57.17
2018-04-18T23:22:30.804Z,55.98
2018-04-18T23:24:58.372Z,57.29
2018-04-18T23:27:25.960Z,58.08
2018-04-18T23:29:53.926Z,59.05
2018-04-18T23:32:21.649Z,58.90
2018-04-18T23:34:49.340Z,59.01
2018-04-18T23:37:16.976Z,58.62
2018-04-18T23:39:45.221Z,60.54
2018-04-18T23:42:12.872Z,57.66
2018-04-18T23:44:40.656Z,56.12
2018-04-18T23:47:08.273Z,57.71
2018-04-18T23:49:35.857Z,58.19
2018-04-18T23:52:03.585Z,58.56
2018-04-18T23:54:31.175Z,58.55
2018-04-18T23:56:58.764Z,57.81
2018-04-18T23:59:26.481Z,58.97
